createdAt,value
2022-09-03T00:00:12.293Z,52.76
2022-09-03T00:01:12.277Z,51.65
2022-09-03T00:02:12.316Z,53.07
2022-09-03T00:03:12.319Z,52.97
2022-09-03T00:04:12.257Z,53.07
2022-09-03T00:05:12.265Z,53.90
2022-09-03T00:06:12.239Z,53.19
2022-09-03T00:07:12.237Z,53.98
2022-09-03T00:08:12.209Z,53.07
2022-09-03T00:09:12.213Z,53.88
2022-09-03T00:10:12.237Z,53.38
2022-09-03T00:11:12.197Z,53.07
2022-09-03T00:12:12.198Z,52.76
2022-09-03T00:13:12.193Z,52.87
2022-09-03T00:14:12.181Z,52.06
2022-09-03T00:15:12.172Z,51.96
2022-09-03T00:16:12.230Z,52.76
2022-09-03T00:17:12.157Z,52.87
2022-09-03T00:18:12.148Z,53.38
2022-09-03T00:19:12.137Z,52.46
2022-09-03T00:20:12.139Z,53.47
2022-09-03T00:21:12.141Z,52.59
2022-09-03T00:22:12.127Z,53.80
2022-09-03T00:23:12.113Z,52.79
2022-09-03T00:24:14.233Z,53.50
2022-09-03T00:25:12.093Z,52.89
2022-09-03T00:26:12.084Z,53.02
2022-09-03T00:27:12.093Z,53.83
2022-09-03T00:28:12.080Z,53.52
2022-09-03T00:29:12.089Z,54.03
2022-09-03T00:30:14.616Z,53.83
2022-09-03T00:31:13.082Z,53.96
2022-09-03T00:32:12.069Z,54.36
2022-09-03T00:33:12.040Z,53.96
2022-09-03T00:34:12.032Z,54.26
2022-09-03T00:35:12.038Z,54.79
2022-09-03T00:36:12.049Z,54.59
2022-09-03T00:37:14.485Z,54.38
2022-09-03T00:38:12.015Z,54.28
2022-09-03T00:39:11.998Z,55.19
2022-09-03T00:40:11.989Z,56.03
2022-09-03T00:41:11.980Z,56.23
2022-09-03T00:42:11.988Z,56.03
2022-09-03T00:43:11.973Z,56.03
2022-09-03T00:44:12.889Z,56.23
2022-09-03T00:45:11.952Z,56.03
2022-09-03T00:46:12.072Z,56.44
2022-09-03T00:47:11.950Z,56.13
2022-09-03T00:48:11.921Z,56.23
2022-09-03T00:49:11.921Z,55.22
2022-09-03T00:50:11.916Z,55.83
2022-09-03T00:51:11.901Z,55.73
2022-09-03T00:52:11.892Z,55.25
2022-09-03T00:53:11.922Z,55.76
2022-09-03T00:54:11.877Z,56.39
2022-09-03T00:55:11.878Z,56.49
2022-09-03T00:56:11.886Z,55.88
2022-09-03T00:57:11.864Z,57.40
2022-09-03T00:58:11.889Z,57.40
2022-09-03T00:59:11.852Z,56.99
2022-09-03T01:00:11.836Z,58.14
2022-09-03T01:01:11.884Z,57.53
2022-09-03T01:02:11.929Z,57.93
2022-09-03T01:03:11.829Z,58.04
2022-09-03T01:04:11.828Z,58.65
2022-09-03T01:05:11.817Z,57.86
2022-09-03T01:06:11.809Z,57.86
2022-09-03T01:07:11.804Z,57.46
2022-09-03T01:08:11.848Z,57.56
2022-09-03T01:09:11.832Z,58.58
2022-09-03T01:10:11.788Z,59.28
2022-09-03T01:11:11.778Z,59.31
2022-09-03T01:12:11.767Z,58.60
2022-09-03T01:13:11.796Z,58.60
2022-09-03T01:14:11.763Z,58.40
2022-09-03T01:15:11.747Z,58.60
2022-09-03T01:16:11.870Z,59.11
2022-09-03T01:17:11.733Z,58.70
2022-09-03T01:18:11.747Z,59.72
2022-09-03T01:19:11.726Z,60.15
2022-09-03T01:20:11.716Z,58.70
2022-09-03T01:21:11.709Z,59.72
2022-09-03T01:22:11.699Z,59.95
2022-09-03T01:23:11.703Z,59.82
2022-09-03T01:24:11.703Z,59.14
2022-09-03T01:25:11.685Z,58.91
2022-09-03T01:26:11.683Z,60.36
2022-09-03T01:27:11.667Z,59.84
2022-09-03T01:28:11.652Z,60.13
2022-09-03T01:29:11.678Z,60.53
2022-09-03T01:30:11.660Z,59.14
2022-09-03T01:31:11.695Z,60.36
2022-09-03T01:32:11.647Z,60.15
2022-09-03T01:33:11.656Z,58.73
2022-09-03T01:34:11.627Z,60.13
2022-09-03T01:35:11.641Z,60.05
2022-09-03T01:36:11.667Z,59.95
2022-09-03T01:37:11.611Z,59.64
2022-09-03T01:38:11.607Z,59.54
2022-09-03T01:39:11.598Z,60.05
2022-09-03T01:40:11.606Z,60.18
2022-09-03T01:41:11.582Z,60.36
2022-09-03T01:42:11.582Z,60.59
2022-09-03T01:43:11.573Z,61.27
2022-09-03T01:44:11.570Z,60.79
2022-09-03T01:45:11.559Z,60.15
2022-09-03T01:46:11.583Z,61.17
2022-09-03T01:47:13.194Z,61.57
2022-09-03T01:48:11.547Z,61.47
2022-09-03T01:49:11.530Z,61.17
2022-09-03T01:50:11.555Z,61.60
2022-09-03T01:51:11.537Z,61.10
2022-09-03T01:52:11.521Z,61.10
2022-09-03T01:53:11.513Z,61.40
2022-09-03T01:54:18.119Z,61.30
2022-09-03T01:55:12.483Z,61.60
2022-09-03T01:56:12.506Z,61.60
2022-09-03T01:57:17.229Z,61.60
2022-09-03T01:58:12.475Z,61.10
2022-09-03T01:59:11.462Z,61.33
2022-09-03T02:00:11.465Z,61.81
2022-09-03T02:01:11.507Z,61.71
2022-09-03T02:02:11.551Z,61.63
2022-09-03T02:03:11.442Z,61.83
2022-09-03T02:04:11.427Z,62.04
2022-09-03T02:05:11.438Z,61.60
2022-09-03T02:06:11.423Z,62.45
2022-09-03T02:07:11.443Z,61.94
2022-09-03T02:08:11.754Z,62.24
2022-09-03T02:09:11.394Z,61.94
2022-09-03T02:10:11.399Z,61.83
2022-09-03T02:11:11.386Z,62.62
2022-09-03T02:12:11.379Z,62.04
2022-09-03T02:13:11.395Z,61.91
2022-09-03T02:14:11.374Z,61.71
2022-09-03T02:15:11.367Z,62.35
2022-09-03T02:16:11.389Z,62.35
2022-09-03T02:17:11.355Z,62.01
2022-09-03T02:18:11.366Z,61.94
2022-09-03T02:19:11.344Z,62.24
2022-09-03T02:20:11.339Z,61.94
2022-09-03T02:21:11.331Z,62.45
2022-09-03T02:22:11.322Z,62.65
2022-09-03T02:23:11.321Z,62.75
2022-09-03T02:24:11.318Z,62.75
2022-09-03T02:25:11.295Z,62.24
2022-09-03T02:26:11.287Z,62.85
2022-09-03T02:27:11.290Z,62.65
2022-09-03T02:28:17.052Z,62.45
2022-09-03T02:29:12.299Z,62.65
2022-09-03T02:30:11.275Z,62.75
2022-09-03T02:31:11.326Z,62.65
2022-09-03T02:32:11.262Z,61.94
2022-09-03T02:33:11.248Z,62.04
2022-09-03T02:34:11.284Z,62.75
2022-09-03T02:35:11.225Z,62.65
2022-09-03T02:36:11.235Z,62.65
2022-09-03T02:37:11.222Z,62.68
2022-09-03T02:38:11.213Z,62.58
2022-09-03T02:39:11.227Z,62.65
2022-09-03T02:40:11.278Z,63.39
2022-09-03T02:41:11.199Z,63.87
2022-09-03T02:42:11.194Z,63.59
2022-09-03T02:43:11.198Z,63.16
2022-09-03T02:44:11.189Z,62.55
2022-09-03T02:45:11.191Z,62.98
2022-09-03T02:46:11.182Z,62.58
2022-09-03T02:47:11.160Z,62.58
2022-09-03T02:48:11.167Z,62.78
2022-09-03T02:49:11.142Z,62.68
2022-09-03T02:50:11.147Z,62.58
2022-09-03T02:51:14.364Z,62.78
2022-09-03T02:52:11.124Z,62.48
2022-09-03T02:53:11.119Z,61.97
2022-09-03T02:54:11.115Z,62.07
2022-09-03T02:55:11.123Z,62.20
2022-09-03T02:56:11.095Z,61.69
2022-09-03T02:57:12.094Z,62.61
2022-09-03T02:58:11.094Z,62.43
2022-09-03T02:59:11.082Z,64.34
2022-09-03T03:00:11.110Z,63.86
2022-09-03T03:01:11.122Z,63.65
2022-09-03T03:02:12.104Z,64.90
2022-09-03T03:03:11.068Z,65.01
2022-09-03T03:04:11.054Z,64.84
2022-09-03T03:05:11.045Z,64.70
2022-09-03T03:06:11.058Z,66.27
2022-09-03T03:07:11.034Z,65.95
2022-09-03T03:08:11.043Z,65.68
2022-09-03T03:09:11.022Z,66.39
2022-09-03T03:10:11.013Z,66.50
2022-09-03T03:11:11.019Z,66.19
2022-09-03T03:12:10.998Z,67.32
2022-09-03T03:13:10.995Z,67.11
2022-09-03T03:14:10.978Z,67.76
2022-09-03T03:15:11.064Z,68.03
2022-09-03T03:16:11.121Z,68.84
2022-09-03T03:17:10.970Z,68.23
2022-09-03T03:18:10.970Z,68.33
2022-09-03T03:19:10.950Z,68.74
2022-09-03T03:20:11.958Z,68.67
2022-09-03T03:21:10.967Z,68.67
2022-09-03T03:22:10.946Z,68.23
2022-09-03T03:23:10.946Z,67.62
2022-09-03T03:24:10.944Z,68.54
2022-09-03T03:25:10.930Z,68.23
2022-09-03T03:26:10.911Z,68.23
2022-09-03T03:27:10.914Z,68.54
2022-09-03T03:28:10.910Z,68.03
2022-09-03T03:29:10.915Z,68.03
2022-09-03T03:30:10.901Z,67.41
2022-09-03T03:31:10.937Z,67.62
2022-09-03T03:32:10.870Z,68.23
2022-09-03T03:33:10.870Z,67.21
2022-09-03T03:34:10.877Z,67.62
2022-09-03T03:35:10.857Z,68.03
2022-09-03T03:36:10.859Z,68.06
2022-09-03T03:37:10.846Z,68.13
2022-09-03T03:38:10.843Z,67.52
2022-09-03T03:39:11.385Z,68.47
2022-09-03T03:40:10.828Z,67.55
2022-09-03T03:41:10.818Z,68.44
2022-09-03T03:42:10.827Z,67.82
2022-09-03T03:43:10.803Z,68.77
2022-09-03T03:44:10.806Z,69.56
2022-09-03T03:45:10.795Z,70.40
2022-09-03T03:46:10.899Z,70.51
2022-09-03T03:47:10.783Z,70.31
2022-09-03T03:48:10.782Z,70.17
2022-09-03T03:49:10.766Z,69.38
2022-09-03T03:50:10.758Z,69.56
2022-09-03T03:51:10.745Z,70.17
2022-09-03T03:52:10.746Z,70.68
2022-09-03T03:53:10.742Z,69.38
2022-09-03T03:54:10.745Z,69.66
2022-09-03T03:55:10.729Z,68.64
2022-09-03T03:56:10.721Z,68.33
2022-09-03T03:57:10.709Z,68.37
2022-09-03T03:58:10.717Z,68.16
2022-09-03T03:59:10.722Z,68.44
2022-09-03T04:00:10.693Z,68.03
2022-09-03T04:01:10.747Z,68.03
2022-09-03T04:02:10.719Z,67.93
2022-09-03T04:03:10.677Z,67.52
2022-09-03T04:04:10.685Z,68.23
2022-09-03T04:05:10.669Z,68.33
2022-09-03T04:06:10.658Z,68.44
2022-09-03T04:07:10.649Z,68.95
2022-09-03T04:08:10.647Z,68.74
2022-09-03T04:09:10.649Z,68.74
2022-09-03T04:10:10.634Z,69.18
2022-09-03T04:11:10.634Z,68.54
2022-09-03T04:12:10.617Z,68.37
2022-09-03T04:13:10.620Z,68.57
2022-09-03T04:14:10.607Z,68.47
2022-09-03T04:15:10.620Z,69.29
2022-09-03T04:16:10.638Z,68.67
2022-09-03T04:17:10.593Z,70.00
2022-09-03T04:18:10.585Z,69.69
2022-09-03T04:19:10.580Z,69.29
2022-09-03T04:20:10.583Z,68.57
2022-09-03T04:21:10.569Z,67.85
2022-09-03T04:22:10.565Z,68.26
2022-09-03T04:23:10.561Z,68.67
2022-09-03T04:24:10.540Z,69.08
2022-09-03T04:25:10.557Z,68.67
2022-09-03T04:26:10.533Z,68.37
2022-09-03T04:27:10.521Z,68.57
2022-09-03T04:28:10.533Z,69.29
2022-09-03T04:29:10.521Z,68.06
2022-09-03T04:30:10.513Z,70.10
2022-09-03T04:31:10.582Z,68.77
2022-09-03T04:32:10.517Z,68.37
2022-09-03T04:33:15.944Z,68.26
2022-09-03T04:34:11.489Z,68.06
2022-09-03T04:35:10.476Z,68.77
2022-09-03T04:36:10.457Z,68.16
2022-09-03T04:37:11.481Z,68.50
2022-09-03T04:38:10.461Z,68.47
2022-09-03T04:39:10.449Z,68.98
2022-09-03T04:40:10.444Z,69.49
2022-09-03T04:41:10.449Z,68.67
2022-09-03T04:42:10.448Z,68.98
2022-09-03T04:43:10.432Z,68.50
2022-09-03T04:44:10.417Z,68.80
2022-09-03T04:45:10.409Z,68.60
2022-09-03T04:46:14.508Z,68.91
2022-09-03T04:47:12.420Z,70.03
2022-09-03T04:48:10.401Z,70.44
2022-09-03T04:49:10.389Z,70.98
2022-09-03T04:50:10.381Z,70.23
2022-09-03T04:51:10.369Z,70.03
2022-09-03T04:52:10.385Z,70.23
2022-09-03T04:53:10.361Z,70.14
2022-09-03T04:54:10.355Z,70.23
2022-09-03T04:55:10.354Z,70.14
2022-09-03T04:56:10.349Z,68.70
2022-09-03T04:57:10.352Z,69.15
2022-09-03T04:58:10.336Z,68.94
2022-09-03T04:59:10.337Z,68.74
2022-09-03T05:00:10.365Z,68.43
2022-09-03T05:01:10.393Z,68.33
2022-09-03T05:02:10.389Z,69.56
2022-09-03T05:03:10.355Z,69.24
2022-09-03T05:04:10.298Z,69.76
2022-09-03T05:05:10.292Z,70.30
2022-09-03T05:06:10.285Z,70.17
2022-09-03T05:07:10.272Z,70.51
2022-09-03T05:08:11.276Z,70.57
2022-09-03T05:09:10.281Z,70.81
2022-09-03T05:10:10.270Z,70.17
2022-09-03T05:11:10.264Z,70.27
2022-09-03T05:12:10.281Z,70.06
2022-09-03T05:13:10.248Z,70.88
2022-09-03T05:14:10.241Z,69.56
2022-09-03T05:15:10.240Z,69.86
2022-09-03T05:16:10.256Z,70.27
2022-09-03T05:17:10.240Z,71.19
2022-09-03T05:18:10.217Z,72.21
2022-09-03T05:19:10.216Z,71.19
2022-09-03T05:20:10.208Z,71.56
2022-09-03T05:21:10.205Z,71.46
2022-09-03T05:22:10.188Z,71.77
2022-09-03T05:23:10.195Z,71.67
2022-09-03T05:24:10.205Z,71.02
2022-09-03T05:25:10.190Z,70.51
2022-09-03T05:26:11.041Z,71.22
2022-09-03T05:27:10.156Z,70.61
2022-09-03T05:28:10.152Z,70.61
2022-09-03T05:29:10.211Z,69.96
2022-09-03T05:30:10.144Z,68.37
2022-09-03T05:31:10.309Z,68.57
2022-09-03T05:32:10.128Z,68.77
2022-09-03T05:33:10.128Z,68.37
2022-09-03T05:34:10.205Z,68.64
2022-09-03T05:35:11.119Z,68.44
2022-09-03T05:36:10.118Z,68.64
2022-09-03T05:37:10.094Z,68.26
2022-09-03T05:38:10.080Z,68.64
2022-09-03T05:39:11.080Z,68.74
2022-09-03T05:40:10.073Z,68.74
2022-09-03T05:41:10.088Z,70.27
2022-09-03T05:42:10.064Z,69.46
2022-09-03T05:43:10.084Z,68.33
2022-09-03T05:44:10.059Z,68.74
2022-09-03T05:45:10.045Z,68.10
2022-09-03T05:46:10.149Z,68.40
2022-09-03T05:47:11.048Z,68.81
2022-09-03T05:48:10.032Z,68.61
2022-09-03T05:49:10.011Z,69.32
2022-09-03T05:50:10.048Z,68.20
2022-09-03T05:51:10.033Z,68.20
2022-09-03T05:52:10.053Z,68.68
2022-09-03T05:53:10.026Z,68.57
2022-09-03T05:54:10.042Z,68.57
2022-09-03T05:55:13.273Z,68.48
2022-09-03T05:56:10.990Z,68.48
2022-09-03T05:57:09.968Z,68.68
2022-09-03T05:58:09.964Z,68.13
2022-09-03T05:59:09.978Z,67.43
2022-09-03T06:00:09.952Z,67.93
2022-09-03T06:01:09.948Z,68.04
2022-09-03T06:02:10.031Z,67.93
2022-09-03T06:03:11.033Z,67.80
2022-09-03T06:04:09.931Z,68.41
2022-09-03T06:05:09.924Z,68.31
2022-09-03T06:06:09.920Z,69.12
2022-09-03T06:07:09.916Z,68.58
2022-09-03T06:08:09.899Z,68.48
2022-09-03T06:09:09.901Z,67.66
2022-09-03T06:10:09.884Z,67.46
2022-09-03T06:11:09.880Z,67.46
2022-09-03T06:12:09.895Z,68.58
2022-09-03T06:13:09.871Z,68.55
2022-09-03T06:14:09.865Z,68.44
2022-09-03T06:15:09.863Z,68.65
2022-09-03T06:16:09.875Z,67.94
2022-09-03T06:17:09.867Z,67.97
2022-09-03T06:18:09.836Z,68.12
2022-09-03T06:19:09.877Z,68.87
2022-09-03T06:20:09.821Z,69.61
2022-09-03T06:21:09.816Z,69.14
2022-09-03T06:22:09.816Z,65.33
2022-09-03T06:23:09.814Z,63.45
2022-09-03T06:24:09.800Z,60.06
2022-09-03T06:25:09.788Z,59.09
2022-09-03T06:26:09.785Z,57.45
2022-09-03T06:27:09.796Z,57.00
2022-09-03T06:28:09.764Z,58.38
2022-09-03T06:29:09.760Z,56.84
2022-09-03T06:30:09.759Z,54.98
2022-09-03T06:31:09.828Z,54.63
2022-09-03T06:32:09.771Z,52.29
2022-09-03T06:33:09.727Z,51.06
2022-09-03T06:34:09.720Z,52.44
2022-09-03T06:35:09.715Z,52.19
2022-09-03T06:36:09.714Z,50.87
2022-09-03T06:37:09.707Z,50.44
2022-09-03T06:38:09.696Z,50.02
2022-09-03T06:39:09.687Z,48.69
2022-09-03T06:40:09.684Z,47.69
2022-09-03T06:41:09.675Z,47.37
2022-09-03T06:42:09.668Z,46.97
2022-09-03T06:43:09.669Z,45.35
2022-09-03T06:44:09.651Z,47.95
2022-09-03T06:45:10.752Z,46.15
2022-09-03T06:46:09.687Z,43.65
2022-09-03T06:47:09.637Z,44.15
2022-09-03T06:48:09.637Z,45.83
2022-09-03T06:49:09.636Z,45.71
2022-09-03T06:50:09.623Z,44.09
2022-09-03T06:51:09.611Z,42.55
2022-09-03T06:52:09.608Z,42.65
2022-09-03T06:53:09.607Z,43.82
2022-09-03T06:54:09.593Z,42.71
2022-09-03T06:55:09.575Z,42.79
2022-09-03T06:56:09.579Z,42.37
2022-09-03T06:57:09.577Z,39.40
2022-09-03T06:58:09.564Z,40.38
2022-09-03T06:59:09.553Z,40.80
2022-09-03T07:00:09.551Z,40.08
2022-09-03T07:01:09.678Z,40.44
2022-09-03T07:02:09.759Z,38.14
2022-09-03T07:03:09.536Z,38.92
2022-09-03T07:04:09.535Z,38.70
2022-09-03T07:05:09.520Z,38.58
2022-09-03T07:06:09.508Z,37.15
2022-09-03T07:07:09.507Z,37.63
2022-09-03T07:08:09.499Z,36.35
2022-09-03T07:09:09.503Z,36.33
2022-09-03T07:10:09.492Z,34.05
2022-09-03T07:11:09.486Z,35.37
2022-09-03T07:12:09.467Z,35.27
2022-09-03T07:13:09.468Z,35.27
2022-09-03T07:14:09.447Z,35.97
2022-09-03T07:15:09.459Z,36.84
2022-09-03T07:16:09.470Z,36.23
2022-09-03T07:17:09.431Z,35.53
2022-09-03T07:18:09.435Z,36.31
2022-09-03T07:19:09.443Z,36.31
2022-09-03T07:20:09.424Z,35.21
2022-09-03T07:21:09.415Z,34.97
2022-09-03T07:22:09.407Z,35.14
2022-09-03T07:23:09.401Z,34.53
2022-09-03T07:24:09.403Z,33.80
2022-09-03T07:25:09.396Z,33.20
2022-09-03T07:26:09.387Z,32.89
2022-09-03T07:27:14.311Z,32.29
2022-09-03T07:28:11.367Z,31.49
2022-09-03T07:29:09.359Z,31.48
2022-09-03T07:30:09.358Z,30.30
2022-09-03T07:31:09.356Z,30.72
2022-09-03T07:32:09.397Z,30.66
2022-09-03T07:33:10.326Z,32.19
2022-09-03T07:34:10.314Z,32.34
2022-09-03T07:35:09.328Z,34.46
2022-09-03T07:36:09.320Z,35.58
2022-09-03T07:37:09.327Z,35.69
2022-09-03T07:38:09.304Z,36.62
2022-09-03T07:39:09.311Z,33.41
2022-09-03T07:40:09.296Z,32.39
2022-09-03T07:41:09.275Z,32.49
2022-09-03T07:42:09.290Z,33.72
2022-09-03T07:43:09.275Z,33.95
2022-09-03T07:44:09.253Z,34.39
2022-09-03T07:45:09.265Z,34.05
2022-09-03T07:46:09.254Z,31.65
2022-09-03T07:47:09.235Z,32.44
2022-09-03T07:48:09.236Z,31.06
2022-09-03T07:49:09.235Z,32.18
2022-09-03T07:50:09.227Z,32.49
2022-09-03T07:51:09.224Z,33.01
2022-09-03T07:52:11.964Z,33.67
2022-09-03T07:53:09.205Z,32.29
2022-09-03T07:54:09.195Z,32.50
2022-09-03T07:55:09.231Z,32.53
2022-09-03T07:56:09.192Z,33.34
2022-09-03T07:57:09.173Z,34.66
2022-09-03T07:58:09.175Z,35.88
2022-09-03T07:59:09.173Z,36.18
2022-09-03T08:00:09.179Z,35.58
2022-09-03T08:01:11.293Z,36.35
2022-09-03T08:02:09.228Z,34.51
2022-09-03T08:03:09.148Z,33.00
2022-09-03T08:04:09.720Z,34.17
2022-09-03T08:05:09.131Z,32.37
2022-09-03T08:06:09.145Z,31.70
2022-09-03T08:07:09.119Z,32.50
2022-09-03T08:08:09.116Z,32.52
2022-09-03T08:09:09.096Z,33.34
2022-09-03T08:10:09.103Z,34.05
2022-09-03T08:11:09.107Z,33.95
2022-09-03T08:12:09.087Z,33.95
2022-09-03T08:13:09.077Z,34.13
2022-09-03T08:14:09.077Z,34.05
2022-09-03T08:15:09.059Z,34.25
2022-09-03T08:16:09.112Z,34.66
2022-09-03T08:17:09.067Z,34.33
2022-09-03T08:18:09.039Z,34.12
2022-09-03T08:19:09.040Z,34.15
2022-09-03T08:20:09.041Z,35.14
2022-09-03T08:21:09.041Z,34.43
2022-09-03T08:22:09.042Z,33.41
2022-09-03T08:23:09.015Z,32.92
2022-09-03T08:24:09.002Z,32.52
2022-09-03T08:25:09.014Z,33.21
2022-09-03T08:26:09.007Z,32.47
2022-09-03T08:27:09.007Z,32.47
2022-09-03T08:28:08.999Z,31.19
2022-09-03T08:29:08.995Z,32.45
2022-09-03T08:30:08.974Z,31.67
2022-09-03T08:31:09.008Z,32.37
2022-09-03T08:32:08.971Z,32.60
2022-09-03T08:33:08.955Z,33.00
2022-09-03T08:34:08.970Z,32.90
2022-09-03T08:35:08.947Z,33.14
2022-09-03T08:36:08.941Z,34.56
2022-09-03T08:37:08.942Z,35.50
2022-09-03T08:38:10.080Z,34.76
2022-09-03T08:39:08.922Z,33.69
2022-09-03T08:40:08.914Z,32.95
2022-09-03T08:41:08.915Z,30.91
2022-09-03T08:42:08.902Z,30.63
2022-09-03T08:43:08.900Z,31.68
2022-09-03T08:44:08.915Z,32.78
2022-09-03T08:45:08.883Z,32.44
2022-09-03T08:46:08.964Z,31.52
2022-09-03T08:47:08.871Z,30.80
2022-09-03T08:48:08.863Z,30.60
2022-09-03T08:49:08.882Z,29.82
2022-09-03T08:50:08.850Z,30.90
2022-09-03T08:51:08.839Z,30.60
2022-09-03T08:52:08.840Z,31.41
2022-09-03T08:53:08.825Z,31.32
2022-09-03T08:54:08.835Z,31.44
2022-09-03T08:55:08.818Z,31.47
2022-09-03T08:56:08.812Z,31.85
2022-09-03T08:57:08.805Z,31.63
2022-09-03T08:58:08.795Z,31.32
2022-09-03T08:59:08.793Z,31.62
2022-09-03T09:00:08.799Z,30.82
2022-09-03T09:01:08.776Z,30.40
2022-09-03T09:02:08.910Z,29.99
2022-09-03T09:03:08.762Z,29.83
2022-09-03T09:04:08.763Z,30.82
2022-09-03T09:05:11.103Z,31.45
2022-09-03T09:06:10.747Z,30.94
2022-09-03T09:07:08.746Z,31.45
2022-09-03T09:08:08.743Z,30.88
2022-09-03T09:09:08.756Z,32.14
2022-09-03T09:10:08.734Z,31.52
2022-09-03T09:11:08.723Z,31.34
2022-09-03T09:12:08.715Z,30.86
2022-09-03T09:13:08.706Z,31.67
2022-09-03T09:14:08.704Z,32.26
2022-09-03T09:15:08.696Z,31.44
2022-09-03T09:16:08.752Z,30.52
2022-09-03T09:17:08.686Z,31.52
2022-09-03T09:18:08.681Z,30.85
2022-09-03T09:19:08.669Z,30.75
2022-09-03T09:20:08.664Z,31.03
2022-09-03T09:21:08.674Z,30.13
2022-09-03T09:22:09.658Z,30.93
2022-09-03T09:23:09.316Z,30.82
2022-09-03T09:24:08.639Z,30.43
2022-09-03T09:25:08.657Z,31.03
2022-09-03T09:26:08.647Z,30.85
2022-09-03T09:27:10.814Z,31.47
2022-09-03T09:28:09.620Z,31.07
2022-09-03T09:29:09.448Z,31.44
2022-09-03T09:30:08.608Z,31.42
2022-09-03T09:31:08.632Z,31.42
2022-09-03T09:32:08.618Z,31.49
2022-09-03T09:33:08.604Z,30.41
2022-09-03T09:34:08.601Z,29.90
2022-09-03T09:35:08.573Z,29.79
2022-09-03T09:36:08.576Z,30.45
2022-09-03T09:37:08.563Z,27.64
2022-09-03T09:38:08.552Z,27.83
2022-09-03T09:39:08.556Z,27.12
2022-09-03T09:40:08.544Z,28.12
2022-09-03T09:41:08.548Z,27.24
2022-09-03T09:42:08.544Z,27.31
2022-09-03T09:43:08.536Z,27.49
2022-09-03T09:44:08.529Z,27.50
2022-09-03T09:45:08.524Z,27.24
2022-09-03T09:46:08.550Z,27.67
2022-09-03T09:47:08.517Z,29.68
2022-09-03T09:48:08.504Z,29.61
2022-09-03T09:49:08.488Z,30.54
2022-09-03T09:50:08.484Z,31.13
2022-09-03T09:51:09.472Z,31.06
2022-09-03T09:52:08.487Z,31.34
2022-09-03T09:53:08.475Z,30.47
2022-09-03T09:54:08.472Z,31.37
2022-09-03T09:55:08.459Z,31.79
2022-09-03T09:56:08.443Z,32.81
2022-09-03T09:57:08.447Z,33.34
2022-09-03T09:58:13.474Z,34.03
2022-09-03T09:59:10.470Z,34.66
2022-09-03T10:00:08.442Z,34.50
2022-09-03T10:01:08.472Z,36.02
2022-09-03T10:02:08.418Z,36.65
2022-09-03T10:03:08.579Z,37.36
2022-09-03T10:04:08.417Z,36.96
2022-09-03T10:05:08.405Z,37.86
2022-09-03T10:06:08.402Z,36.94
2022-09-03T10:07:08.386Z,36.73
2022-09-03T10:08:08.378Z,37.11
2022-09-03T10:09:08.393Z,36.07
2022-09-03T10:10:08.381Z,34.34
2022-09-03T10:11:08.357Z,34.45
2022-09-03T10:12:08.353Z,35.04
2022-09-03T10:13:08.353Z,34.27
2022-09-03T10:14:08.361Z,33.95
2022-09-03T10:15:08.338Z,33.84
2022-09-03T10:16:08.402Z,33.85
2022-09-03T10:17:08.325Z,34.97
2022-09-03T10:18:08.316Z,34.36
2022-09-03T10:19:08.310Z,33.26
2022-09-03T10:20:08.309Z,33.92
2022-09-03T10:21:08.310Z,33.26
2022-09-03T10:22:08.300Z,31.24
2022-09-03T10:23:08.286Z,30.43
2022-09-03T10:24:08.277Z,29.92
2022-09-03T10:25:08.289Z,30.83
2022-09-03T10:26:08.268Z,30.43
2022-09-03T10:27:08.265Z,30.54
2022-09-03T10:28:08.329Z,30.44
2022-09-03T10:29:08.249Z,31.01
2022-09-03T10:30:08.325Z,30.06
2022-09-03T10:31:08.332Z,31.67
2022-09-03T10:32:08.234Z,31.88
2022-09-03T10:33:08.226Z,31.16
2022-09-03T10:34:08.222Z,30.75
2022-09-03T10:35:08.214Z,31.01
2022-09-03T10:36:08.237Z,29.93
2022-09-03T10:37:08.485Z,30.52
2022-09-03T10:38:08.198Z,29.20
2022-09-03T10:39:08.194Z,29.59
2022-09-03T10:40:08.311Z,29.48
2022-09-03T10:41:08.187Z,29.61
2022-09-03T10:42:08.178Z,29.52
2022-09-03T10:43:08.169Z,29.72
2022-09-03T10:44:08.157Z,30.51
2022-09-03T10:45:08.153Z,30.27
2022-09-03T10:46:08.209Z,31.17
2022-09-03T10:47:08.149Z,32.18
2022-09-03T10:48:08.293Z,32.34
2022-09-03T10:49:08.137Z,34.15
2022-09-03T10:50:08.133Z,34.45
2022-09-03T10:51:08.117Z,33.34
2022-09-03T10:52:08.123Z,34.53
2022-09-03T10:53:08.097Z,34.13
2022-09-03T10:54:08.114Z,34.31
2022-09-03T10:55:08.097Z,32.68
2022-09-03T10:56:08.119Z,32.19
2022-09-03T10:57:08.102Z,31.98
2022-09-03T10:58:08.081Z,31.38
2022-09-03T10:59:08.083Z,32.92
2022-09-03T11:00:08.066Z,33.51
2022-09-03T11:01:08.072Z,32.93
2022-09-03T11:02:08.042Z,33.14
2022-09-03T11:03:09.058Z,33.82
2022-09-03T11:04:08.073Z,32.88
2022-09-03T11:05:08.041Z,32.73
2022-09-03T11:06:08.037Z,30.21
2022-09-03T11:07:08.033Z,30.52
2022-09-03T11:08:08.061Z,30.43
2022-09-03T11:09:08.014Z,29.39
2022-09-03T11:10:08.016Z,29.80
2022-09-03T11:11:07.990Z,30.13
2022-09-03T11:12:07.996Z,30.24
2022-09-03T11:13:07.991Z,30.72
2022-09-03T11:14:07.996Z,29.89
2022-09-03T11:15:07.983Z,28.50
2022-09-03T11:16:08.027Z,28.47
2022-09-03T11:17:07.974Z,28.57
2022-09-03T11:18:07.958Z,27.88
2022-09-03T11:19:07.967Z,28.20
2022-09-03T11:20:07.939Z,28.19
2022-09-03T11:21:12.067Z,28.77
2022-09-03T11:22:08.945Z,27.70
2022-09-03T11:23:07.931Z,28.59
2022-09-03T11:24:07.936Z,28.37
2022-09-03T11:25:07.929Z,27.66
2022-09-03T11:26:07.911Z,27.17
2022-09-03T11:27:07.902Z,27.91
2022-09-03T11:28:07.901Z,29.90
2022-09-03T11:29:07.914Z,29.97
2022-09-03T11:30:07.890Z,31.48
2022-09-03T11:31:07.918Z,31.93
2022-09-03T11:32:07.884Z,32.25
2022-09-03T11:33:07.881Z,32.95
2022-09-03T11:34:08.338Z,32.43
2022-09-03T11:35:08.891Z,33.03
2022-09-03T11:36:07.857Z,32.93
2022-09-03T11:37:07.861Z,32.80
2022-09-03T11:38:07.846Z,32.21
2022-09-03T11:39:07.842Z,32.21
2022-09-03T11:40:07.853Z,32.19
2022-09-03T11:41:07.831Z,32.19
2022-09-03T11:42:07.851Z,31.50
2022-09-03T11:43:07.844Z,31.50
2022-09-03T11:44:07.806Z,31.79
2022-09-03T11:45:07.819Z,30.99
2022-09-03T11:46:07.864Z,30.47
2022-09-03T11:47:07.794Z,30.86
2022-09-03T11:48:07.790Z,31.04
2022-09-03T11:49:07.782Z,31.04
2022-09-03T11:50:07.782Z,30.03
2022-09-03T11:51:07.782Z,30.52
2022-09-03T11:52:07.769Z,30.44
2022-09-03T11:53:07.762Z,30.57
2022-09-03T11:54:07.749Z,31.35
2022-09-03T11:55:07.746Z,30.27
2022-09-03T11:56:07.754Z,30.55
2022-09-03T11:57:07.734Z,30.45
2022-09-03T11:58:07.734Z,31.85
2022-09-03T11:59:07.725Z,30.66
2022-09-03T12:00:07.722Z,30.35
2022-09-03T12:01:07.726Z,31.01
2022-09-03T12:02:07.765Z,29.49
2022-09-03T12:03:07.697Z,28.51
2022-09-03T12:04:07.698Z,29.30
2022-09-03T12:05:07.683Z,29.77
2022-09-03T12:06:07.691Z,29.10
2022-09-03T12:07:07.669Z,29.92
2022-09-03T12:08:09.053Z,30.57
2022-09-03T12:09:08.668Z,32.52
2022-09-03T12:10:07.665Z,33.26
2022-09-03T12:11:07.724Z,34.46
2022-09-03T12:12:07.688Z,34.38
2022-09-03T12:13:07.644Z,35.17
2022-09-03T12:14:11.683Z,35.58
2022-09-03T12:15:10.582Z,35.41
2022-09-03T12:16:07.679Z,36.41
2022-09-03T12:17:07.604Z,36.41
2022-09-03T12:18:07.609Z,36.30
2022-09-03T12:19:07.596Z,36.40
2022-09-03T12:20:08.618Z,35.29
2022-09-03T12:21:07.596Z,35.29
2022-09-03T12:22:07.583Z,35.27
2022-09-03T12:23:07.580Z,35.58
2022-09-03T12:24:07.573Z,35.69
2022-09-03T12:25:07.604Z,35.58
2022-09-03T12:26:07.547Z,36.30
2022-09-03T12:27:07.563Z,36.61
2022-09-03T12:28:07.540Z,36.32
2022-09-03T12:29:09.431Z,37.72
2022-09-03T12:30:07.528Z,37.23
2022-09-03T12:31:07.560Z,37.74
2022-09-03T12:32:07.698Z,37.64
2022-09-03T12:33:07.508Z,37.45
2022-09-03T12:34:07.504Z,36.93
2022-09-03T12:35:07.572Z,37.23
2022-09-03T12:36:07.504Z,37.92
2022-09-03T12:37:07.492Z,36.73
2022-09-03T12:38:09.337Z,37.23
2022-09-03T12:39:12.029Z,37.13
2022-09-03T12:40:09.129Z,37.92
2022-09-03T12:41:23.352Z,37.23
2022-09-03T12:42:09.456Z,37.72
2022-09-03T12:44:09.448Z,37.03
2022-09-03T12:45:07.444Z,37.03
2022-09-03T12:46:10.993Z,36.73
2022-09-03T12:48:09.454Z,36.83
2022-09-03T12:50:09.427Z,37.04
2022-09-03T12:52:09.384Z,37.13
2022-09-03T12:53:07.380Z,37.92
2022-09-03T12:54:07.521Z,37.45
2022-09-03T12:55:07.359Z,38.06
2022-09-03T12:56:07.359Z,37.86